createdAt,value
2023-04-19T00:02:13.976Z,4.13
2023-04-19T00:04:44.813Z,4.17
2023-04-19T00:07:14.121Z,4.30
2023-04-19T00:09:42.542Z,5.13
2023-04-19T00:12:10.996Z,5.67
2023-04-19T00:14:39.408Z,4.50
2023-04-19T00:17:09.327Z,4.17
2023-04-19T00:19:37.724Z,6.00
2023-04-19T00:22:06.376Z,4.23
2023-04-19T00:24:34.836Z,4.97
2023-04-19T00:27:03.876Z,5.07
2023-04-19T00:29:32.293Z,4.70
2023-04-19T00:32:00.712Z,4.37
2023-04-19T00:34:30.477Z,4.57
2023-04-19T00:36:58.933Z,5.90
2023-04-19T00:39:27.425Z,4.70
2023-04-19T00:41:57.338Z,6.43
2023-04-19T00:44:25.893Z,4.53
2023-04-19T00:46:54.701Z,4.27
2023-04-19T00:49:24.256Z,4.20
2023-04-19T00:51:54.150Z,4.50
2023-04-19T00:54:22.696Z,5.07
2023-04-19T00:56:51.170Z,3.87
2023-04-19T00:59:19.851Z,5.37
2023-04-19T01:01:48.473Z,5.53
2023-04-19T01:04:17.756Z,5.27
2023-04-19T01:06:46.360Z,5.37
2023-04-19T01:09:16.210Z,5.07
2023-04-19T01:11:44.681Z,4.63
2023-04-19T01:14:13.245Z,4.70
2023-04-19T01:16:41.884Z,4.70
2023-04-19T01:19:16.816Z,4.10
2023-04-19T01:21:46.366Z,4.87
2023-04-19T01:24:16.507Z,4.53
2023-04-19T01:26:45.069Z,4.33
2023-04-19T01:29:13.484Z,5.87
2023-04-19T01:31:41.975Z,4.03
2023-04-19T01:34:10.504Z,4.33
2023-04-19T01:36:38.959Z,4.93
2023-04-19T01:39:07.440Z,5.07
2023-04-19T01:41:37.465Z,4.37
2023-04-19T01:44:06.226Z,3.50
2023-04-19T01:46:35.234Z,3.93
2023-04-19T01:49:03.676Z,4.90
2023-04-19T01:51:32.129Z,4.17
2023-04-19T01:54:01.658Z,4.63
2023-04-19T01:56:30.201Z,4.73
2023-04-19T01:59:00.126Z,3.53
2023-04-19T02:01:28.745Z,3.57
2023-04-19T02:03:57.482Z,4.63
2023-04-19T02:06:26.982Z,3.80
2023-04-19T02:08:55.562Z,3.40
2023-04-19T02:11:23.979Z,2.87
2023-04-19T02:13:52.404Z,3.03
2023-04-19T02:16:22.202Z,21.10
2023-04-19T02:18:50.767Z,24.03
2023-04-19T02:21:19.168Z,11.60
2023-04-19T02:23:47.617Z,3.53
2023-04-19T02:26:16.052Z,2.27
2023-04-19T02:28:44.486Z,2.20
2023-04-19T02:31:12.943Z,2.20
2023-04-19T02:33:42.748Z,2.30
2023-04-19T02:36:12.158Z,2.20
2023-04-19T02:38:40.759Z,2.50
2023-04-19T02:41:09.195Z,2.77
2023-04-19T02:43:37.804Z,2.40
2023-04-19T02:46:06.531Z,2.50
2023-04-19T02:48:35.095Z,2.40
2023-04-19T02:51:05.005Z,4.03
2023-04-19T02:53:33.667Z,4.43
2023-04-19T02:56:03.154Z,2.43
2023-04-19T02:58:31.571Z,2.27
2023-04-19T03:01:00.030Z,2.50
2023-04-19T03:03:28.697Z,3.33
2023-04-19T03:05:57.230Z,2.80
2023-04-19T03:08:27.028Z,1.87
2023-04-19T03:10:55.494Z,2.13
2023-04-19T03:13:23.911Z,2.13
2023-04-19T03:15:52.496Z,2.23
2023-04-19T03:18:20.940Z,4.03
2023-04-19T03:20:49.429Z,3.40
2023-04-19T03:23:17.860Z,2.17
2023-04-19T03:25:50.840Z,3.60
2023-04-19T03:28:19.229Z,4.37
2023-04-19T03:30:47.646Z,3.13
2023-04-19T03:33:16.260Z,2.50
2023-04-19T03:35:45.591Z,2.33
2023-04-19T03:38:14.017Z,2.30
2023-04-19T03:40:42.439Z,1.97
2023-04-19T03:43:12.235Z,2.23
2023-04-19T03:45:40.640Z,2.00
2023-04-19T03:48:09.060Z,2.37
2023-04-19T03:50:37.553Z,2.63
2023-04-19T03:53:06.270Z,2.60
2023-04-19T03:55:34.686Z,2.77
2023-04-19T03:58:03.164Z,2.70
2023-04-19T04:00:32.983Z,2.60
2023-04-19T04:03:01.646Z,2.33
2023-04-19T04:05:30.408Z,2.60
2023-04-19T04:07:58.843Z,3.10
2023-04-19T04:10:27.382Z,4.13
2023-04-19T04:12:55.808Z,2.53
2023-04-19T04:15:24.272Z,2.53
2023-04-19T04:17:54.214Z,3.03
2023-04-19T04:20:23.163Z,4.43
2023-04-19T04:22:52.554Z,3.60
2023-04-19T04:25:23.004Z,4.93
2023-04-19T04:27:52.752Z,2.93
2023-04-19T04:30:21.174Z,2.30
2023-04-19T04:32:51.316Z,2.13
2023-04-19T04:35:21.513Z,3.03
2023-04-19T04:37:50.009Z,3.07
2023-04-19T04:40:18.599Z,3.97
2023-04-19T04:42:47.027Z,3.20
2023-04-19T04:45:18.466Z,2.90
2023-04-19T04:47:47.396Z,2.20
2023-04-19T04:50:15.949Z,3.93
2023-04-19T04:52:51.192Z,2.50
2023-04-19T04:55:20.038Z,3.30
2023-04-19T04:57:48.513Z,5.77
2023-04-19T05:00:17.712Z,6.33
2023-04-19T05:02:46.286Z,4.27
2023-04-19T05:05:15.073Z,3.57
2023-04-19T05:07:44.859Z,3.47
2023-04-19T05:10:13.316Z,2.97
2023-04-19T05:12:42.742Z,3.10
2023-04-19T05:15:12.098Z,3.80
2023-04-19T05:17:42.646Z,2.50
2023-04-19T05:20:12.148Z,3.73
2023-04-19T05:22:40.577Z,2.40
2023-04-19T05:25:11.686Z,3.40
2023-04-19T05:27:40.135Z,3.20
2023-04-19T05:30:09.203Z,5.90
2023-04-19T05:32:37.920Z,4.77
2023-04-19T05:35:07.366Z,3.80
2023-04-19T05:37:36.829Z,3.67
2023-04-19T05:40:09.414Z,4.93
2023-04-19T05:42:39.853Z,6.10
2023-04-19T05:45:09.397Z,4.63
2023-04-19T05:47:37.926Z,4.63
2023-04-19T05:50:07.648Z,4.20
2023-04-19T05:52:36.083Z,4.43
2023-04-19T05:55:04.795Z,4.63
2023-04-19T05:57:33.317Z,6.40
2023-04-19T06:00:04.823Z,4.77
2023-04-19T06:02:33.449Z,5.70
2023-04-19T06:05:09.487Z,3.87
2023-04-19T06:07:43.099Z,4.87
2023-04-19T06:10:16.188Z,4.90
2023-04-19T06:12:44.879Z,6.60
2023-04-19T06:15:14.747Z,7.87
2023-04-19T06:17:43.304Z,7.13
2023-04-19T06:20:12.495Z,6.70
2023-04-19T06:22:45.056Z,7.30
2023-04-19T06:25:13.711Z,5.80
2023-04-19T06:27:42.216Z,8.47
2023-04-19T06:30:11.124Z,5.77
2023-04-19T06:32:40.969Z,6.07
2023-04-19T06:35:10.405Z,4.20
2023-04-19T06:37:38.896Z,6.53
2023-04-19T06:40:08.553Z,4.53
2023-04-19T06:42:37.105Z,4.20
2023-04-19T06:45:06.471Z,5.37
2023-04-19T06:47:36.033Z,4.30
2023-04-19T06:50:06.806Z,7.03
2023-04-19T06:52:35.329Z,7.10
2023-04-19T06:55:04.006Z,7.23
2023-04-19T06:57:32.380Z,4.97
2023-04-19T07:00:00.929Z,3.53
2023-04-19T07:02:29.566Z,3.77
2023-04-19T07:04:58.109Z,3.83
2023-04-19T07:07:28.002Z,2.93
2023-04-19T07:09:56.496Z,2.37
2023-04-19T07:12:25.054Z,5.10
2023-04-19T07:14:56.514Z,3.47
2023-04-19T07:17:25.086Z,3.67
2023-04-19T07:19:53.568Z,4.80
2023-04-19T07:22:22.275Z,4.53
2023-04-19T07:24:52.231Z,2.93
2023-04-19T07:27:21.004Z,4.40
2023-04-19T07:29:49.577Z,8.13
2023-04-19T07:32:18.733Z,4.90
2023-04-19T07:34:47.293Z,2.63
2023-04-19T07:37:16.089Z,2.77
2023-04-19T07:39:44.644Z,3.03
2023-04-19T07:42:14.448Z,4.60
2023-04-19T07:44:43.044Z,1.93
2023-04-19T07:47:12.138Z,5.00
2023-04-19T07:49:40.642Z,8.73
2023-04-19T07:52:09.416Z,5.10
2023-04-19T07:54:39.212Z,2.80
2023-04-19T07:57:07.683Z,3.50
2023-04-19T07:59:37.437Z,4.30
2023-04-19T08:02:06.055Z,2.27
2023-04-19T08:04:34.812Z,3.10
2023-04-19T08:07:04.848Z,3.90
2023-04-19T08:09:35.068Z,2.47
2023-04-19T08:12:03.546Z,2.53
2023-04-19T08:14:40.650Z,3.30
2023-04-19T08:17:25.091Z,2.77
2023-04-19T08:19:55.489Z,2.53
2023-04-19T08:22:24.062Z,2.40
2023-04-19T08:24:52.620Z,2.50
2023-04-19T08:27:21.202Z,2.60
2023-04-19T08:29:49.734Z,2.90
2023-04-19T08:32:19.741Z,2.60
2023-04-19T08:34:48.283Z,2.40
2023-04-19T08:37:16.962Z,2.63
2023-04-19T08:39:45.429Z,2.60
2023-04-19T08:47:29.600Z,4.63
2023-04-19T08:50:14.024Z,3.77
2023-04-19T08:52:55.986Z,3.60
2023-04-19T08:55:27.560Z,4.60
2023-04-19T08:57:57.235Z,3.23
2023-04-19T09:00:26.059Z,2.80
2023-04-19T09:02:56.229Z,3.83
2023-04-19T09:05:25.156Z,3.17
2023-04-19T09:07:53.845Z,3.27
2023-04-19T09:10:22.832Z,4.27
2023-04-19T09:13:02.729Z,3.77
2023-04-19T09:15:39.376Z,3.37
2023-04-19T09:18:10.788Z,3.30
2023-04-19T09:20:39.880Z,3.33
2023-04-19T09:23:12.467Z,3.10
2023-04-19T09:26:05.917Z,2.60
2023-04-19T09:28:30.414Z,3.43
2023-04-19T09:31:10.700Z,2.70
2023-04-19T09:33:49.766Z,3.43
2023-04-19T09:36:28.836Z,3.57
2023-04-19T09:38:57.526Z,3.37
2023-04-19T09:41:26.117Z,3.53
2023-04-19T09:46:37.147Z,3.60
2023-04-19T09:49:37.589Z,3.60
2023-04-19T09:52:15.585Z,4.83
2023-04-19T09:54:44.440Z,4.33
2023-04-19T09:57:12.983Z,3.57
2023-04-19T09:59:41.448Z,3.87
2023-04-19T10:02:12.476Z,3.20
2023-04-19T10:05:02.754Z,4.73
2023-04-19T10:07:32.921Z,3.13
2023-04-19T10:10:16.135Z,3.83
2023-04-19T10:15:22.670Z,3.77
2023-04-19T10:17:51.404Z,3.60
2023-04-19T10:20:25.369Z,4.40
2023-04-19T10:22:54.490Z,4.17
2023-04-19T10:25:29.925Z,4.77
2023-04-19T10:27:59.383Z,4.63
2023-04-19T10:30:28.199Z,4.83
2023-04-19T10:32:57.976Z,4.37
2023-04-19T10:35:30.935Z,5.77
2023-04-19T10:38:10.377Z,4.33
2023-04-19T10:41:13.658Z,6.13
2023-04-19T10:43:48.518Z,3.73
2023-04-19T10:46:37.232Z,4.60
2023-04-19T10:49:07.974Z,6.23
2023-04-19T10:51:42.420Z,6.27
2023-04-19T10:54:11.428Z,5.93
2023-04-19T10:57:07.266Z,4.30
2023-04-19T10:59:36.785Z,5.23
2023-04-19T11:02:32.961Z,3.90
2023-04-19T11:05:02.724Z,3.30
2023-04-19T11:07:39.926Z,4.27
2023-04-19T11:10:10.201Z,4.00
2023-04-19T11:12:38.994Z,4.37
2023-04-19T11:15:09.554Z,4.00
2023-04-19T11:17:39.758Z,3.40
2023-04-19T11:20:10.883Z,3.50
2023-04-19T11:22:41.525Z,4.50
2023-04-19T11:25:12.367Z,4.63
2023-04-19T11:27:41.736Z,5.10
2023-04-19T11:30:12.422Z,4.27
2023-04-19T11:32:48.395Z,4.30
2023-04-19T11:35:20.737Z,4.23
2023-04-19T11:37:49.379Z,4.97
2023-04-19T11:40:19.222Z,10.47
2023-04-19T11:42:47.889Z,6.00
2023-04-19T11:45:30.501Z,5.83
2023-04-19T11:48:01.692Z,4.67
2023-04-19T11:50:34.972Z,7.03
2023-04-19T11:53:12.443Z,4.67
2023-04-19T11:55:44.268Z,3.83
2023-04-19T11:58:29.361Z,3.47
2023-04-19T12:01:00.913Z,4.07
2023-04-19T12:03:31.208Z,5.67
2023-04-19T12:06:03.467Z,4.23
2023-04-19T12:08:33.500Z,6.70
2023-04-19T12:11:03.593Z,4.33
2023-04-19T12:13:33.020Z,4.87
2023-04-19T12:16:02.553Z,5.80
2023-04-19T12:18:45.741Z,6.03
2023-04-19T12:21:26.370Z,7.60
2023-04-19T12:23:58.516Z,6.27
2023-04-19T12:26:28.296Z,3.90
2023-04-19T12:28:57.524Z,4.00
2023-04-19T12:31:27.118Z,4.83
2023-04-19T12:33:57.195Z,4.77
2023-04-19T12:36:26.869Z,4.43
2023-04-19T12:38:55.851Z,4.23
2023-04-19T12:41:24.460Z,3.73
2023-04-19T12:43:52.940Z,4.10
2023-04-19T12:46:21.579Z,4.17
2023-04-19T12:48:50.091Z,4.23
2023-04-19T12:51:19.941Z,4.70
2023-04-19T12:53:49.339Z,5.60
2023-04-19T12:56:18.383Z,5.10
2023-04-19T12:58:47.060Z,7.60
2023-04-19T13:01:15.652Z,6.57
2023-04-19T13:03:44.283Z,6.13
2023-04-19T13:06:14.816Z,7.00
2023-04-19T13:08:48.214Z,5.50
2023-04-19T13:11:23.042Z,5.10
2023-04-19T13:13:54.190Z,4.80
2023-04-19T13:16:23.803Z,4.70
2023-04-19T13:18:54.820Z,4.97
2023-04-19T13:21:24.188Z,4.90
2023-04-19T13:23:56.269Z,6.00
2023-04-19T13:26:25.634Z,6.43
2023-04-19T13:28:54.486Z,5.20
2023-04-19T13:31:22.963Z,5.67
2023-04-19T13:33:51.412Z,5.87
2023-04-19T13:36:19.971Z,5.47
2023-04-19T13:38:49.374Z,5.90
2023-04-19T13:41:19.599Z,6.20
2023-04-19T13:43:48.248Z,6.00
2023-04-19T13:46:16.884Z,7.00
2023-04-19T13:48:45.453Z,8.33
2023-04-19T13:51:13.990Z,7.50
2023-04-19T13:53:42.499Z,6.03
2023-04-19T13:56:11.215Z,6.20
2023-04-19T13:58:41.057Z,6.07
2023-04-19T14:01:09.797Z,6.33
2023-04-19T14:03:38.410Z,5.87
2023-04-19T14:06:07.323Z,7.27
2023-04-19T14:08:35.793Z,5.70
2023-04-19T14:11:04.508Z,5.33
2023-04-19T14:13:33.088Z,5.20
2023-04-19T14:16:02.960Z,5.97
2023-04-19T14:18:31.503Z,5.17
2023-04-19T14:21:00.018Z,5.43
2023-04-19T14:23:28.729Z,5.27
2023-04-19T14:25:57.297Z,4.73
2023-04-19T14:28:26.111Z,5.03
2023-04-19T14:30:54.637Z,5.20
2023-04-19T14:33:24.966Z,4.23
2023-04-19T14:35:53.403Z,4.43
2023-04-19T14:38:21.834Z,4.77
2023-04-19T14:40:50.280Z,4.67
2023-04-19T14:43:18.770Z,5.73
2023-04-19T14:45:49.829Z,7.50
2023-04-19T14:48:20.849Z,5.50
2023-04-19T14:50:51.825Z,4.03
2023-04-19T14:53:20.314Z,5.80
2023-04-19T14:55:48.703Z,6.07
2023-04-19T14:58:17.166Z,5.43
2023-04-19T15:00:45.695Z,6.33
2023-04-19T15:03:14.385Z,5.77
2023-04-19T15:05:42.988Z,5.40
2023-04-19T15:08:29.157Z,5.97
2023-04-19T15:10:58.463Z,6.83
2023-04-19T15:13:27.148Z,7.10
2023-04-19T15:15:56.205Z,7.73
2023-04-19T15:18:24.648Z,8.87
2023-04-19T15:20:53.067Z,6.43
2023-04-19T15:23:25.241Z,6.27
2023-04-19T15:25:53.783Z,6.83
2023-04-19T15:28:22.221Z,5.53
2023-04-19T15:30:58.975Z,5.90
2023-04-19T15:33:27.603Z,7.60
2023-04-19T15:35:56.857Z,6.03
2023-04-19T15:38:27.860Z,6.03
2023-04-19T15:40:57.083Z,7.83
2023-04-19T15:43:26.045Z,7.97
2023-04-19T15:45:54.550Z,7.03
2023-04-19T15:48:23.308Z,7.50
2023-04-19T15:50:51.817Z,8.23
2023-04-19T15:53:20.594Z,9.90
2023-04-19T15:55:50.510Z,8.43
2023-04-19T15:58:19.574Z,7.63
2023-04-19T16:00:47.939Z,8.37
2023-04-19T16:03:16.566Z,10.40
2023-04-19T16:05:45.095Z,8.40
2023-04-19T16:08:19.168Z,9.37
2023-04-19T16:10:48.109Z,7.70
2023-04-19T16:13:18.184Z,8.10
2023-04-19T16:15:47.192Z,8.83
2023-04-19T16:18:15.616Z,8.03
2023-04-19T16:20:44.048Z,8.20
2023-04-19T16:23:14.470Z,8.47
2023-04-19T16:25:42.912Z,6.67
2023-04-19T16:28:11.395Z,7.37
2023-04-19T16:30:41.257Z,5.80
2023-04-19T16:33:09.751Z,5.83
2023-04-19T16:35:38.231Z,6.07
2023-04-19T16:38:07.054Z,5.17
2023-04-19T16:40:35.544Z,5.57
2023-04-19T16:43:04.797Z,5.23
2023-04-19T16:45:33.504Z,6.00
2023-04-19T16:48:03.486Z,6.37
2023-04-19T16:50:31.996Z,7.00
2023-04-19T16:53:00.447Z,6.33
2023-04-19T16:55:28.955Z,6.77
2023-04-19T16:57:57.496Z,6.40
2023-04-19T17:00:25.999Z,5.50
2023-04-19T17:02:54.515Z,5.87
2023-04-19T17:05:24.470Z,6.87
2023-04-19T17:07:54.252Z,6.83
2023-04-19T17:10:24.909Z,7.17
2023-04-19T17:12:55.295Z,6.57
2023-04-19T17:15:23.870Z,4.77
2023-04-19T17:17:52.381Z,7.47
2023-04-19T17:20:21.179Z,5.10
2023-04-19T17:22:51.002Z,5.57
2023-04-19T17:25:21.778Z,4.97
2023-04-19T17:27:50.925Z,7.70
2023-04-19T17:30:19.467Z,9.43
2023-04-19T17:32:48.029Z,5.30
2023-04-19T17:35:16.911Z,5.13
2023-04-19T17:37:45.560Z,5.67
2023-04-19T17:40:15.495Z,6.50
2023-04-19T17:42:44.009Z,6.13
2023-04-19T17:45:13.092Z,7.03
2023-04-19T17:47:41.980Z,6.20
2023-04-19T17:50:13.013Z,5.03
2023-04-19T17:52:41.678Z,5.20
2023-04-19T17:55:10.763Z,4.43
2023-04-19T17:57:40.633Z,4.50
2023-04-19T18:00:11.822Z,5.20
2023-04-19T18:02:41.396Z,6.33
2023-04-19T18:05:10.520Z,6.13
2023-04-19T18:07:39.106Z,4.50
2023-04-19T18:10:08.450Z,4.73
2023-04-19T18:12:36.999Z,4.23
2023-04-19T18:15:08.011Z,5.90
2023-04-19T18:17:36.758Z,4.70
2023-04-19T18:20:07.038Z,5.03
2023-04-19T18:22:35.567Z,26.33
2023-04-19T18:25:04.049Z,34.53
2023-04-19T18:27:32.733Z,29.13
2023-04-19T18:30:03.794Z,20.33
2023-04-19T18:32:33.658Z,6.67
2023-04-19T18:35:04.124Z,27.97
2023-04-19T18:37:32.671Z,17.87
2023-04-19T18:40:01.085Z,12.13
2023-04-19T18:42:29.493Z,9.43
2023-04-19T18:44:58.085Z,7.07
2023-04-19T18:47:27.290Z,6.60
2023-04-19T18:50:05.327Z,6.07
2023-04-19T18:52:35.895Z,5.83
2023-04-19T18:55:05.191Z,5.20
2023-04-19T18:57:35.285Z,6.13
2023-04-19T19:00:06.424Z,5.33
2023-04-19T19:02:37.118Z,6.50
2023-04-19T19:05:08.658Z,5.43
2023-04-19T19:07:37.934Z,5.40
2023-04-19T19:10:17.099Z,12.87
2023-04-19T19:12:48.886Z,63.20
2023-04-19T19:15:17.804Z,33.63
2023-04-19T19:17:49.644Z,21.50
2023-04-19T19:20:20.759Z,14.13
2023-04-19T19:22:49.389Z,9.93
2023-04-19T19:25:17.890Z,7.37
2023-04-19T19:28:05.499Z,7.07
2023-04-19T19:30:39.611Z,7.93
2023-04-19T19:33:08.475Z,5.90
2023-04-19T19:35:39.666Z,6.60
2023-04-19T19:38:08.365Z,6.13
2023-04-19T19:40:47.965Z,6.67
2023-04-19T19:43:21.982Z,6.43
2023-04-19T19:45:50.488Z,6.07
2023-04-19T19:48:18.905Z,6.00
2023-04-19T19:51:20.330Z,6.50
2023-04-19T19:53:38.141Z,6.33
2023-04-19T19:56:12.942Z,5.83
2023-04-19T19:58:50.277Z,6.10
2023-04-19T20:01:22.524Z,8.37
2023-04-19T20:03:52.049Z,8.53
2023-04-19T20:08:54.559Z,7.07
2023-04-19T20:11:23.141Z,7.63
2023-04-19T20:13:51.778Z,8.60
2023-04-19T20:16:20.977Z,7.37
2023-04-19T20:18:50.148Z,6.33
2023-04-19T20:21:19.618Z,7.23
2023-04-19T20:23:49.593Z,7.13
2023-04-19T20:26:18.108Z,7.13
2023-04-19T20:28:46.697Z,7.70
2023-04-19T20:31:15.853Z,6.23
2023-04-19T20:33:46.514Z,6.27
2023-04-19T20:36:16.448Z,7.47
2023-04-19T20:38:45.770Z,6.00
2023-04-19T20:41:15.609Z,6.73
2023-04-19T20:43:44.231Z,6.77
2023-04-19T20:46:12.869Z,5.93
2023-04-19T20:48:41.483Z,6.10
2023-04-19T20:51:10.204Z,7.40
2023-04-19T20:53:38.646Z,8.70
2023-04-19T20:56:07.117Z,8.10
2023-04-19T20:58:37.877Z,5.13
2023-04-19T21:01:06.380Z,5.03
2023-04-19T21:03:35.121Z,2.70
2023-04-19T21:06:03.723Z,3.20
2023-04-19T21:08:32.192Z,2.60
2023-04-19T21:11:01.183Z,5.27
2023-04-19T21:13:29.638Z,7.80
2023-04-19T21:15:59.538Z,9.37
2023-04-19T21:18:30.041Z,10.33
2023-04-19T21:20:58.621Z,8.83
2023-04-19T21:23:27.092Z,7.70
2023-04-19T21:25:55.504Z,6.43
2023-04-19T21:28:24.959Z,4.90
2023-04-19T21:30:53.592Z,3.00
2023-04-19T21:33:23.466Z,2.50
2023-04-19T21:35:51.955Z,5.53
2023-04-19T21:38:20.580Z,9.63
2023-04-19T21:40:49.450Z,6.77
2023-04-19T21:43:18.942Z,4.07
2023-04-19T21:45:47.385Z,2.10
2023-04-19T21:48:16.069Z,1.83
2023-04-19T21:50:45.842Z,1.77
2023-04-19T21:53:14.308Z,1.60
2023-04-19T21:55:42.729Z,1.30
2023-04-19T21:58:11.194Z,2.00
2023-04-19T22:00:39.672Z,1.83
2023-04-19T22:03:08.337Z,1.37
2023-04-19T22:05:37.408Z,1.40
2023-04-19T22:08:07.488Z,1.10
2023-04-19T22:10:35.912Z,1.50
2023-04-19T22:13:05.001Z,1.53
2023-04-19T22:15:33.554Z,1.27
2023-04-19T22:18:04.023Z,1.27
2023-04-19T22:20:33.726Z,1.60
2023-04-19T22:23:02.268Z,1.60
2023-04-19T22:25:32.071Z,1.70
2023-04-19T22:28:00.577Z,1.30
2023-04-19T22:30:29.057Z,2.57
2023-04-19T22:32:57.603Z,0.83
2023-04-19T22:35:26.045Z,1.73
2023-04-19T22:37:54.529Z,0.67
2023-04-19T22:40:23.217Z,0.77
2023-04-19T22:42:53.007Z,1.67
2023-04-19T22:45:21.471Z,1.10
2023-04-19T22:47:49.993Z,1.13
2023-04-19T22:50:18.518Z,0.97
2023-04-19T22:52:46.964Z,0.90
2023-04-19T22:55:15.518Z,0.77
2023-04-19T22:57:43.971Z,1.00
2023-04-19T23:00:14.765Z,0.80
2023-04-19T23:02:43.394Z,0.63
2023-04-19T23:05:11.912Z,0.67
2023-04-19T23:07:42.533Z,0.77
2023-04-19T23:10:12.261Z,0.77
2023-04-19T23:12:40.781Z,0.47
2023-04-19T23:15:11.032Z,0.60
2023-04-19T23:17:41.005Z,0.77
2023-04-19T23:20:10.934Z,0.53
2023-04-19T23:22:39.397Z,0.57
2023-04-19T23:25:08.904Z,0.50
2023-04-19T23:27:37.662Z,1.13
2023-04-19T23:30:07.759Z,0.40
2023-04-19T23:32:36.325Z,0.70
2023-04-19T23:35:06.933Z,0.60
2023-04-19T23:37:35.472Z,0.83
2023-04-19T23:40:04.047Z,1.17
2023-04-19T23:42:32.603Z,0.70
2023-04-19T23:45:01.248Z,0.80
2023-04-19T23:47:29.736Z,2.13
2023-04-19T23:49:58.156Z,0.90
2023-04-19T23:52:28.017Z,1.13
2023-04-19T23:54:56.439Z,1.10
2023-04-19T23:57:24.888Z,1.27
2023-04-19T23:59:53.411Z,0.80
